Terminal Aerodrome Forecast
Issued by NWS Springfield, MO

Home | Current Version | Previous Version | Text Only | Print | Product List | Glossary On
Versions: 1 2 3 4 5 6 7 8 9 10 11 12 13 14 15 16 17 18 19 20 21 22
000
FTUS43 KSGF 151400 AAA
TAFSGF
TAF AMD
KSGF 151412Z 1514/1612 12007KT 6SM -SHRA BKN025 OVC035
     FM151700 11007KT 6SM BR VCSH SCT005 BKN015 OVC020
     FM160500 16005KT 3SM BR SCT003 BKN020
     FM161000 17005KT 4SM BR BKN250=

USA.gov is the U.S. government's official web portal to all federal, state and local government web resources and services.